createdAt,value
2022-12-03T00:00:44.178Z,97.85
2022-12-03T00:03:15.175Z,185.40
2022-12-03T00:05:49.149Z,108.93
2022-12-03T00:08:20.214Z,58.70
2022-12-03T00:10:51.532Z,79.03
2022-12-03T00:13:24.034Z,55.05
2022-12-03T00:15:54.855Z,41.42
2022-12-03T00:18:25.693Z,45.67
2022-12-03T00:20:56.430Z,37.30
2022-12-03T00:23:27.220Z,102.15
2022-12-03T00:25:57.963Z,55.88
2022-12-03T00:28:30.599Z,27.45
2022-12-03T00:31:01.468Z,50.67
2022-12-03T00:33:32.367Z,42.13
2022-12-03T00:36:03.021Z,52.17
2022-12-03T00:38:33.731Z,37.17
2022-12-03T00:41:04.430Z,43.78
2022-12-03T00:43:37.274Z,34.00
2022-12-03T00:46:08.109Z,25.52
2022-12-03T00:48:38.892Z,34.03
2022-12-03T00:51:10.120Z,29.50
2022-12-03T00:53:40.813Z,41.25
2022-12-03T00:56:11.943Z,34.47
2022-12-03T00:58:44.250Z,35.72
2022-12-03T01:01:15.028Z,33.22
2022-12-03T01:03:45.741Z,32.33
2022-12-03T01:06:16.459Z,37.72
2022-12-03T01:08:47.225Z,32.38
2022-12-03T01:11:34.878Z,37.20
2022-12-03T01:14:07.423Z,34.90
2022-12-03T01:16:38.453Z,33.83
2022-12-03T01:19:10.018Z,43.95
2022-12-03T01:21:41.211Z,26.95
2022-12-03T01:24:12.505Z,35.55
2022-12-03T01:26:43.338Z,30.67
2022-12-03T01:29:16.100Z,31.67
2022-12-03T01:32:03.571Z,28.77
2022-12-03T01:34:34.349Z,22.77
2022-12-03T01:37:05.256Z,18.50
2022-12-03T01:39:36.037Z,15.85
2022-12-03T01:42:07.622Z,17.48
2022-12-03T01:44:42.708Z,14.50
2022-12-03T01:47:17.514Z,15.90
2022-12-03T01:49:53.832Z,12.10
2022-12-03T01:52:29.837Z,11.90
2022-12-03T01:55:04.610Z,11.25
2022-12-03T01:57:42.933Z,20.08
2022-12-03T02:00:18.783Z,10.93
2022-12-03T02:02:51.183Z,11.88
2022-12-03T02:05:24.448Z,11.82
2022-12-03T02:08:07.196Z,10.90
2022-12-03T02:10:40.521Z,13.35
2022-12-03T02:13:12.873Z,14.07
2022-12-03T02:15:45.375Z,11.20
2022-12-03T02:18:16.183Z,11.23
2022-12-03T02:20:56.111Z,12.70
2022-12-03T02:23:35.562Z,14.35
2022-12-03T02:26:08.065Z,15.48
2022-12-03T02:28:38.937Z,11.77
2022-12-03T02:31:10.030Z,10.90
2022-12-03T02:33:41.842Z,8.65
2022-12-03T02:36:14.016Z,8.60
2022-12-03T02:38:45.944Z,6.97
2022-12-03T02:41:34.887Z,7.68
2022-12-03T02:44:06.397Z,8.23
2022-12-03T02:46:38.180Z,6.65
2022-12-03T02:49:18.525Z,8.52
2022-12-03T02:51:49.759Z,9.02
2022-12-03T02:54:21.181Z,7.18
2022-12-03T02:56:53.785Z,10.02
2022-12-03T02:59:24.615Z,8.85
2022-12-03T03:01:55.502Z,7.47
2022-12-03T03:04:26.776Z,9.35
2022-12-03T03:06:57.613Z,9.77
2022-12-03T03:09:28.840Z,11.23
2022-12-03T03:12:01.107Z,18.15
2022-12-03T03:14:31.744Z,13.90
2022-12-03T03:17:02.549Z,12.20
2022-12-03T03:19:33.889Z,11.88
2022-12-03T03:22:04.597Z,10.05
2022-12-03T03:24:35.874Z,13.57
2022-12-03T03:27:09.028Z,9.23
2022-12-03T03:29:40.118Z,7.72
2022-12-03T03:32:10.839Z,5.90
2022-12-03T03:34:42.657Z,8.50
2022-12-03T03:37:13.432Z,9.43
2022-12-03T03:39:44.235Z,8.77
2022-12-03T03:42:16.871Z,10.15
2022-12-03T03:44:48.940Z,11.73
2022-12-03T03:47:20.277Z,4.38
2022-12-03T03:49:51.681Z,7.88
2022-12-03T03:52:23.145Z,14.68
2022-12-03T03:54:54.199Z,13.20
2022-12-03T03:57:27.030Z,48.92
2022-12-03T03:59:57.891Z,17.17
2022-12-03T04:02:32.316Z,14.85
2022-12-03T04:05:03.560Z,10.82
2022-12-03T04:07:34.397Z,3.83
2022-12-03T04:10:25.831Z,4.53
2022-12-03T04:12:56.884Z,7.57
2022-12-03T04:15:28.733Z,6.63
2022-12-03T04:18:16.079Z,4.32
2022-12-03T04:20:46.881Z,4.40
2022-12-03T04:23:16.298Z,11.70
2022-12-03T04:26:03.777Z,9.60
2022-12-03T04:28:54.288Z,6.38
2022-12-03T04:31:41.825Z,9.95
2022-12-03T04:34:29.593Z,3.10
2022-12-03T04:37:00.325Z,4.00
2022-12-03T04:39:30.968Z,3.55
2022-12-03T04:42:02.316Z,5.15
2022-12-03T04:44:40.822Z,5.45
2022-12-03T04:47:13.795Z,4.38
2022-12-03T04:49:46.132Z,4.25
2022-12-03T04:52:18.360Z,5.38
2022-12-03T04:54:49.200Z,5.15
2022-12-03T04:57:21.836Z,5.72
2022-12-03T04:59:55.781Z,2.65
2022-12-03T05:02:26.495Z,9.80
2022-12-03T05:04:57.321Z,7.03
2022-12-03T05:07:28.067Z,4.93
2022-12-03T05:09:58.771Z,5.43
2022-12-03T05:12:29.490Z,6.22
2022-12-03T05:15:01.816Z,5.68
2022-12-03T05:17:32.590Z,8.20
2022-12-03T05:20:20.213Z,3.58
2022-12-03T05:22:50.953Z,6.70
2022-12-03T05:25:21.663Z,3.78
2022-12-03T05:27:52.359Z,6.70
2022-12-03T05:30:24.904Z,2.55
2022-12-03T05:36:05.331Z,17.42
2022-12-03T05:39:14.821Z,6.03
2022-12-03T05:42:29.629Z,6.07
2022-12-03T05:48:41.234Z,9.98
2022-12-03T05:51:34.394Z,5.53
2022-12-03T05:54:22.833Z,6.13
2022-12-03T05:57:37.005Z,12.63
2022-12-03T06:00:20.120Z,7.68
2022-12-03T06:03:21.471Z,13.48
2022-12-03T06:06:17.307Z,12.32
2022-12-03T06:09:16.913Z,7.50
2022-12-03T06:11:59.457Z,6.10
2022-12-03T06:14:45.051Z,5.75
2022-12-03T06:17:37.675Z,11.75
2022-12-03T06:20:29.904Z,14.88
2022-12-03T06:23:29.537Z,26.40
2022-12-03T06:26:33.090Z,21.35
2022-12-03T06:29:18.685Z,12.55
2022-12-03T06:31:57.609Z,12.43
2022-12-03T06:34:35.854Z,13.35
2022-12-03T06:37:19.158Z,15.90
2022-12-03T06:40:16.977Z,9.98
2022-12-03T06:43:02.444Z,8.10
2022-12-03T06:45:44.560Z,7.05
2022-12-03T06:48:32.601Z,11.05
2022-12-03T06:54:11.078Z,12.93
2022-12-03T06:57:11.808Z,12.48
2022-12-03T06:59:54.647Z,12.68
2022-12-03T07:02:48.553Z,18.83
2022-12-03T07:05:32.363Z,13.77
2022-12-03T07:12:00.329Z,22.80
2022-12-03T07:15:31.625Z,33.63
2022-12-03T08:10:57.609Z,3.45
2022-12-03T08:13:50.869Z,6.28
2022-12-03T08:16:32.227Z,5.30
2022-12-03T08:19:37.055Z,6.32
2022-12-03T08:22:45.358Z,5.20
2022-12-03T09:05:42.559Z,55.90
2022-12-03T09:08:18.759Z,24.40
2022-12-03T09:11:04.401Z,28.20
2022-12-03T09:14:20.578Z,53.97
2022-12-03T09:17:02.683Z,50.63
2022-12-03T09:19:56.402Z,61.30
2022-12-03T09:22:50.087Z,61.60
2022-12-03T09:25:33.409Z,49.28
2022-12-03T09:28:19.724Z,29.13
2022-12-03T09:31:04.527Z,23.25
2022-12-03T09:33:49.921Z,15.70
2022-12-03T09:36:31.613Z,18.67
2022-12-03T09:39:13.676Z,15.18
2022-12-03T09:41:58.703Z,19.00
2022-12-03T09:44:57.362Z,20.27
2022-12-03T09:56:55.721Z,78.07
2022-12-03T09:59:46.807Z,53.83
2022-12-03T10:03:02.803Z,48.75
2022-12-03T10:05:54.066Z,198.05
2022-12-03T10:08:47.059Z,154.88
2022-12-03T10:11:29.059Z,117.00
2022-12-03T10:17:58.799Z,182.43
2022-12-03T10:20:55.369Z,292.83
2022-12-03T10:23:37.326Z,322.70
2022-12-03T10:33:29.860Z,16.67
2022-12-03T10:36:32.920Z,8.10
2022-12-03T10:39:17.096Z,10.75
2022-12-03T10:41:58.762Z,33.83
2022-12-03T10:44:40.457Z,27.98
2022-12-03T10:47:31.730Z,39.38
2022-12-03T10:56:58.848Z,14.95
2022-12-03T10:59:49.652Z,77.38
2022-12-03T11:02:30.580Z,107.50
2022-12-03T11:05:12.078Z,86.63
2022-12-03T11:07:53.826Z,40.50
2022-12-03T11:14:01.660Z,14.40
2022-12-03T11:17:14.964Z,16.88
2022-12-03T11:19:54.149Z,13.98
2022-12-03T11:22:47.656Z,10.68
2022-12-03T11:25:53.279Z,12.18
2022-12-03T11:28:39.320Z,6.97
2022-12-03T11:31:37.447Z,11.48
2022-12-03T11:34:44.579Z,233.98
2022-12-03T11:37:32.601Z,111.78
2022-12-03T11:40:39.569Z,101.43
2022-12-03T11:43:13.918Z,174.82
2022-12-03T11:45:45.616Z,71.60
2022-12-03T11:48:19.940Z,48.80
2022-12-03T11:50:55.594Z,97.75
2022-12-03T11:53:30.688Z,83.88
2022-12-03T11:56:10.078Z,55.60
2022-12-03T11:58:46.575Z,26.40
2022-12-03T12:01:38.546Z,158.90
2022-12-03T12:04:49.258Z,266.55
2022-12-03T12:10:06.526Z,216.40
2022-12-03T12:12:51.107Z,180.65
2022-12-03T12:15:53.282Z,90.88
2022-12-03T12:18:42.517Z,32.78
2022-12-03T12:21:48.778Z,16.33
2022-12-03T12:24:41.440Z,10.95
2022-12-03T12:27:14.215Z,15.60
2022-12-03T12:29:49.556Z,12.45
2022-12-03T12:32:27.017Z,14.95
2022-12-03T12:35:01.777Z,14.85
2022-12-03T12:37:38.967Z,20.75
2022-12-03T12:40:18.798Z,33.20
2022-12-03T12:42:55.419Z,25.65
2022-12-03T12:45:42.779Z,23.75
2022-12-03T12:48:25.534Z,18.20
2022-12-03T12:51:03.090Z,20.55
2022-12-03T12:53:37.546Z,19.65
2022-12-03T12:56:20.928Z,17.92
2022-12-03T12:58:51.894Z,19.65
2022-12-03T13:01:28.094Z,20.92
2022-12-03T13:03:59.684Z,24.42
2022-12-03T13:06:35.456Z,19.98
2022-12-03T13:09:12.456Z,27.63
2022-12-03T13:11:47.681Z,35.42
2022-12-03T13:14:21.263Z,36.30
2022-12-03T13:16:53.329Z,27.73
2022-12-03T13:19:28.609Z,34.80
2022-12-03T13:26:37.793Z,22.23
2022-12-03T13:29:22.894Z,22.88
2022-12-03T13:31:57.127Z,29.75
2022-12-03T13:34:29.464Z,23.70
2022-12-03T13:37:04.413Z,26.70
2022-12-03T13:39:38.811Z,22.55
2022-12-03T13:42:42.512Z,28.25
2022-12-03T13:45:35.547Z,33.08
2022-12-03T13:48:16.588Z,33.60
2022-12-03T13:50:56.975Z,33.42
2022-12-03T13:53:30.438Z,33.05
2022-12-03T13:56:28.189Z,36.90
2022-12-03T13:59:09.327Z,53.20
2022-12-03T14:01:44.268Z,28.27
2022-12-03T14:04:16.063Z,24.73
2022-12-03T14:06:56.940Z,20.73
2022-12-03T14:09:28.114Z,21.90
2022-12-03T14:12:37.165Z,20.67
2022-12-03T14:15:13.582Z,18.33
2022-12-03T14:17:51.782Z,17.83
2022-12-03T14:20:23.051Z,19.52
2022-12-03T14:22:59.087Z,20.23
2022-12-03T14:25:33.469Z,16.30
2022-12-03T14:28:23.328Z,27.65
2022-12-03T14:31:06.360Z,17.75
2022-12-03T14:33:56.053Z,21.33
2022-12-03T14:36:26.977Z,21.25
2022-12-03T14:38:58.925Z,18.95
2022-12-03T14:44:38.013Z,22.10
2022-12-03T14:47:41.370Z,22.17
2022-12-03T14:50:26.188Z,15.68
2022-12-03T14:53:27.518Z,11.90
2022-12-03T14:58:55.325Z,8.50
2022-12-03T15:01:49.131Z,5.80
2022-12-03T15:04:44.755Z,8.75
2022-12-03T15:07:26.207Z,9.30
2022-12-03T15:10:02.663Z,9.10
2022-12-03T15:12:55.595Z,8.60
2022-12-03T15:15:45.383Z,12.20
2022-12-03T15:18:30.168Z,16.27
2022-12-03T15:21:37.144Z,6.90
2022-12-03T15:27:22.485Z,7.40
2022-12-03T15:29:59.522Z,8.98
2022-12-03T15:32:46.389Z,9.35
2022-12-03T15:35:19.791Z,11.68
2022-12-03T15:38:05.290Z,9.13
2022-12-03T15:40:50.514Z,9.98
2022-12-03T15:43:28.675Z,7.45
2022-12-03T15:46:12.110Z,13.38
2022-12-03T15:49:14.531Z,12.35
2022-12-03T15:51:52.557Z,11.23
2022-12-03T15:54:38.333Z,10.95
2022-12-03T15:57:34.576Z,6.50
2022-12-03T16:00:25.508Z,8.40
2022-12-03T16:03:20.582Z,6.45
2022-12-03T16:06:09.064Z,7.45
2022-12-03T16:08:55.864Z,8.27
2022-12-03T16:11:50.029Z,13.05
2022-12-03T16:14:37.769Z,8.13
2022-12-03T16:17:42.768Z,15.82
2022-12-03T16:20:18.777Z,10.57
2022-12-03T16:22:56.226Z,8.77
2022-12-03T16:25:34.062Z,7.15
2022-12-03T16:28:21.770Z,7.03
2022-12-03T16:31:01.631Z,6.28
2022-12-03T16:33:39.200Z,9.52
2022-12-03T16:36:23.043Z,8.85
2022-12-03T16:39:13.263Z,10.32
2022-12-03T16:42:02.561Z,6.60
2022-12-03T16:45:15.562Z,12.10
2022-12-03T16:48:09.968Z,6.68
2022-12-03T16:50:52.971Z,6.13
2022-12-03T16:53:45.122Z,5.65
2022-12-03T16:56:21.628Z,8.15
2022-12-03T16:59:01.742Z,8.73
2022-12-03T17:01:43.988Z,7.18
2022-12-03T17:04:51.235Z,7.78
2022-12-03T17:07:44.281Z,7.18
2022-12-03T17:10:47.703Z,39.38
2022-12-03T17:13:35.136Z,81.53
2022-12-03T17:16:28.177Z,41.63
2022-12-03T17:19:12.839Z,13.10
2022-12-03T17:22:06.040Z,11.70
2022-12-03T17:24:58.038Z,45.95
2022-12-03T17:27:35.489Z,163.95
2022-12-03T17:30:20.790Z,117.57
2022-12-03T17:33:19.381Z,87.32
2022-12-03T17:36:26.908Z,40.08
2022-12-03T17:39:25.783Z,44.10
2022-12-03T17:42:23.148Z,41.53
2022-12-03T17:45:18.112Z,12.07
2022-12-03T17:48:11.788Z,14.48
2022-12-03T17:50:59.790Z,14.23
2022-12-03T17:53:38.364Z,13.63
2022-12-03T17:56:33.243Z,16.42
2022-12-03T17:59:20.189Z,21.98
2022-12-03T18:02:05.972Z,21.50
2022-12-03T18:07:45.619Z,20.05
2022-12-03T18:10:35.209Z,20.00
2022-12-03T18:13:20.019Z,12.45
2022-12-03T18:16:06.255Z,14.48
2022-12-03T18:22:04.680Z,15.27
2022-12-03T18:24:41.260Z,12.00
2022-12-03T18:27:25.564Z,13.23
2022-12-03T18:30:11.163Z,15.73
2022-12-03T18:32:59.617Z,21.08
2022-12-03T18:35:41.402Z,18.23
2022-12-03T18:38:25.173Z,18.92
2022-12-03T18:41:12.873Z,24.25
2022-12-03T18:44:00.073Z,20.42
2022-12-03T18:46:53.380Z,23.17
2022-12-03T18:49:41.162Z,18.15
2022-12-03T18:52:18.748Z,14.05
2022-12-03T18:58:17.536Z,11.57
2022-12-03T19:00:56.760Z,7.05
2022-12-03T19:03:48.058Z,13.15
2022-12-03T19:06:42.186Z,24.40
2022-12-03T19:09:21.333Z,15.75
2022-12-03T19:12:12.853Z,11.82
2022-12-03T19:14:52.085Z,13.65
2022-12-03T19:17:41.033Z,11.45
2022-12-03T19:20:42.897Z,9.05
2022-12-03T19:23:29.736Z,9.73
2022-12-03T19:26:36.343Z,7.68
2022-12-03T19:29:17.774Z,9.57
2022-12-03T19:31:57.813Z,7.57
2022-12-03T19:37:23.257Z,8.07
2022-12-03T19:43:18.414Z,8.95
2022-12-03T19:46:04.674Z,9.57
2022-12-03T19:48:48.056Z,10.65
2022-12-03T19:51:38.292Z,12.50
2022-12-03T19:54:48.840Z,10.90
2022-12-03T19:57:44.978Z,18.77
2022-12-03T20:00:32.681Z,18.13
2022-12-03T20:06:13.342Z,10.20
2022-12-03T20:08:57.932Z,12.35
2022-12-03T20:11:39.618Z,11.45
2022-12-03T20:14:20.885Z,10.93
2022-12-03T20:17:11.511Z,13.25
2022-12-03T20:20:04.453Z,11.70
2022-12-03T20:22:44.485Z,9.07
2022-12-03T20:25:30.119Z,10.93
2022-12-03T20:28:33.936Z,10.70
2022-12-03T20:31:13.068Z,9.25
2022-12-03T20:33:55.107Z,14.10
2022-12-03T20:36:41.133Z,12.00
2022-12-03T20:39:21.613Z,9.88
2022-12-03T20:42:18.635Z,12.20
2022-12-03T20:45:01.916Z,10.32
2022-12-03T20:47:49.086Z,14.68
2022-12-03T20:50:28.458Z,11.00
2022-12-03T20:53:32.572Z,10.63
2022-12-03T20:56:21.640Z,11.43
2022-12-03T20:59:13.979Z,15.00
2022-12-03T21:02:22.050Z,9.82
2022-12-03T21:05:00.815Z,11.70
2022-12-03T21:08:05.948Z,14.65
2022-12-03T21:10:55.672Z,10.80
2022-12-03T21:13:52.712Z,15.15
2022-12-03T21:17:07.107Z,12.13
2022-12-03T21:19:58.234Z,10.57
2022-12-03T21:22:52.115Z,8.45
2022-12-03T21:25:38.556Z,11.70
2022-12-03T21:28:25.096Z,15.27
2022-12-03T21:31:20.406Z,10.32
2022-12-03T21:34:03.872Z,12.88
2022-12-03T21:36:45.391Z,9.88
2022-12-03T21:39:32.308Z,9.02
2022-12-03T21:42:34.512Z,11.57
2022-12-03T21:48:07.842Z,9.75
2022-12-03T21:54:07.999Z,13.27
2022-12-03T21:56:45.979Z,4.78
2022-12-03T21:59:25.140Z,8.65
2022-12-03T22:05:09.985Z,7.80
2022-12-03T22:07:52.470Z,6.43
2022-12-03T22:10:43.541Z,7.32
2022-12-03T22:13:25.705Z,15.43
2022-12-03T22:16:16.926Z,7.57
2022-12-03T22:19:04.759Z,6.55
2022-12-03T22:22:02.319Z,10.73
2022-12-03T22:24:51.155Z,9.18
2022-12-03T22:27:39.067Z,10.73
2022-12-03T22:30:27.727Z,6.13
2022-12-03T22:33:20.413Z,5.90
2022-12-03T22:36:20.569Z,7.32
2022-12-03T22:39:29.982Z,9.10
2022-12-03T22:42:22.499Z,9.18
2022-12-03T22:44:59.602Z,8.38
2022-12-03T22:47:43.964Z,8.90
2022-12-03T22:50:21.744Z,8.15
2022-12-03T22:53:02.146Z,8.40
2022-12-03T22:55:39.723Z,8.88
2022-12-03T22:58:37.059Z,7.55
2022-12-03T23:04:32.172Z,6.80
2022-12-03T23:07:33.235Z,9.38
2022-12-03T23:10:32.612Z,5.88
2022-12-03T23:13:18.144Z,12.18
2022-12-03T23:16:11.127Z,8.07
2022-12-03T23:18:50.218Z,10.15
2022-12-03T23:21:35.062Z,12.90
2022-12-03T23:24:13.667Z,6.35
2022-12-03T23:26:51.688Z,14.18
2022-12-03T23:29:44.913Z,9.60
2022-12-03T23:32:36.163Z,11.15
2022-12-03T23:35:53.045Z,10.55
2022-12-03T23:38:39.978Z,11.00
2022-12-03T23:44:23.419Z,7.68
2022-12-03T23:50:11.574Z,12.60
2022-12-03T23:55:58.738Z,7.75
2022-12-03T23:58:37.532Z,7.13
